Time,TemperatureF,DewpointF,PressureIn,WindDirection,WindDirectionDegrees,WindSpeedMPH,WindSpeedGustMPH,Humidity,HourlyPrecipIn,Conditions,Clouds,dailyrainin,SoftwareType,DateUTC
2013-05-16 00:00:00,69.6,60.3,30.12,North,0,1.0,8.0,72,0.00,,,0.00,meteohub,2013-05-16 04:00:00,
2013-05-16 00:01:00,69.6,60.3,30.12,North,0,0.0,8.0,72,0.00,,,0.00,meteohub,2013-05-16 04:01:00,
2013-05-16 00:02:00,69.6,60.3,30.12,North,0,1.0,8.0,72,0.00,,,0.00,meteohub,2013-05-16 04:02:00,
2013-05-16 00:05:00,69.6,60.6,30.12,North,0,3.0,6.0,73,0.00,,,0.00,meteohub,2013-05-16 04:05:00,
2013-05-16 00:07:00,69.6,60.6,30.12,North,0,3.0,6.0,73,0.00,,,0.00,meteohub,2013-05-16 04:07:00,
2013-05-16 00:13:00,69.4,60.4,30.12,North,0,2.0,6.0,73,0.00,,,0.00,meteohub,2013-05-16 04:13:00,
2013-05-16 00:19:00,69.4,60.4,30.12,North,0,1.0,7.0,73,0.00,,,0.00,meteohub,2013-05-16 04:19:00,
2013-05-16 00:25:00,69.4,60.4,30.12,North,0,2.0,7.0,73,0.00,,,0.00,meteohub,2013-05-16 04:25:00,
2013-05-16 00:31:00,69.4,60.4,30.12,North,0,3.0,7.0,73,0.00,,,0.00,meteohub,2013-05-16 04:31:00,
2013-05-16 00:37:00,69.3,60.6,30.12,North,0,2.0,9.0,74,0.00,,,0.00,meteohub,2013-05-16 04:37:00,
2013-05-16 00:42:00,69.3,60.6,30.11,North,0,1.0,9.0,74,0.00,,,0.00,meteohub,2013-05-16 04:42:00,
2013-05-16 00:47:00,69.3,60.6,30.11,North,0,0.0,6.0,74,0.00,,,0.00,meteohub,2013-05-16 04:47:00,
2013-05-16 00:52:00,69.1,60.4,30.11,North,0,2.0,6.0,74,0.00,,,0.00,meteohub,2013-05-16 04:52:00,
2013-05-16 00:57:00,69.1,60.8,30.11,North,0,2.0,7.0,75,0.00,,,0.00,meteohub,2013-05-16 04:57:00,
2013-05-16 01:02:00,69.1,60.8,30.11,North,0,3.0,7.0,75,0.00,,,0.00,meteohub,2013-05-16 05:02:00,
2013-05-16 01:07:00,68.7,60.4,30.11,North,0,2.0,7.0,75,0.00,,,0.00,meteohub,2013-05-16 05:07:00,
2013-05-16 01:12:00,68.7,60.4,30.11,North,0,3.0,7.0,75,0.00,,,0.00,meteohub,2013-05-16 05:12:00,
2013-05-16 01:17:00,68.5,60.6,30.11,North,0,1.0,7.0,76,0.00,,,0.00,meteohub,2013-05-16 05:17:00,
2013-05-16 01:22:00,68.4,60.4,30.11,North,0,0.0,7.0,76,0.00,,,0.00,meteohub,2013-05-16 05:22:00,
2013-05-16 01:27:00,68.4,60.8,30.10,North,0,1.0,7.0,77,0.00,,,0.00,meteohub,2013-05-16 05:27:00,
2013-05-16 01:33:00,68.2,60.6,30.10,North,0,3.0,5.0,77,0.00,,,0.00,meteohub,2013-05-16 05:33:00,
2013-05-16 01:39:00,68.0,60.4,30.10,North,0,1.0,5.0,77,0.00,,,0.00,meteohub,2013-05-16 05:39:00,
2013-05-16 01:44:00,67.8,60.6,30.10,North,0,0.0,4.0,78,0.00,,,0.00,meteohub,2013-05-16 05:44:00,
2013-05-16 01:50:00,67.6,60.6,30.10,North,0,0.0,4.0,78,0.00,,,0.00,meteohub,2013-05-16 05:50:00,
2013-05-16 01:56:00,67.6,60.6,30.10,North,0,0.0,4.0,78,0.00,,,0.00,meteohub,2013-05-16 05:56:00,
2013-05-16 02:02:00,67.6,61.0,30.10,North,0,0.0,2.0,79,0.00,,,0.00,meteohub,2013-05-16 06:02:00,
2013-05-16 02:07:00,67.5,60.8,30.10,North,0,0.0,2.0,79,0.00,,,0.00,meteohub,2013-05-16 06:07:00,
2013-05-16 02:12:00,67.5,61.2,30.10,North,0,0.0,2.0,80,0.00,,,0.00,meteohub,2013-05-16 06:12:00,
2013-05-16 02:17:00,67.3,61.0,30.10,North,0,0.0,2.0,80,0.00,,,0.00,meteohub,2013-05-16 06:17:00,
2013-05-16 02:22:00,67.1,60.8,30.10,North,0,0.0,0.0,80,0.00,,,0.00,meteohub,2013-05-16 06:22:00,
2013-05-16 02:27:00,66.9,60.6,30.10,North,0,0.0,0.0,80,0.00,,,0.00,meteohub,2013-05-16 06:27:00,
2013-05-16 02:32:00,66.7,60.4,30.09,North,0,0.0,2.0,80,0.00,,,0.00,meteohub,2013-05-16 06:32:00,
2013-05-16 02:37:00,66.6,60.6,30.09,North,0,0.0,2.0,81,0.00,,,0.00,meteohub,2013-05-16 06:37:00,
2013-05-16 02:42:00,66.4,60.4,30.09,North,0,0.0,0.0,81,0.00,,,0.00,meteohub,2013-05-16 06:42:00,
2013-05-16 02:47:00,66.4,60.4,30.09,North,0,0.0,0.0,81,0.00,,,0.00,meteohub,2013-05-16 06:47:00,
2013-05-16 02:52:00,66.2,60.6,30.09,North,0,0.0,0.0,82,0.00,,,0.00,meteohub,2013-05-16 06:52:00,
2013-05-16 02:57:00,66.0,60.4,30.09,North,0,0.0,1.0,82,0.00,,,0.00,meteohub,2013-05-16 06:57:00,
2013-05-16 03:02:00,65.8,60.3,30.09,North,0,0.0,1.0,82,0.00,,,0.00,meteohub,2013-05-16 07:02:00,
2013-05-16 03:07:00,65.8,60.3,30.09,North,0,0.0,1.0,82,0.00,,,0.00,meteohub,2013-05-16 07:07:00,
2013-05-16 03:12:00,65.8,60.6,30.09,North,0,2.0,2.0,83,0.00,,,0.00,meteohub,2013-05-16 07:12:00,
2013-05-16 03:17:00,65.7,60.4,30.09,North,0,1.0,3.0,83,0.00,,,0.00,meteohub,2013-05-16 07:17:00,
2013-05-16 03:22:00,65.7,60.4,30.09,North,0,0.0,3.0,83,0.00,,,0.00,meteohub,2013-05-16 07:22:00,
2013-05-16 03:27:00,65.7,60.4,30.09,North,0,0.0,2.0,83,0.00,,,0.00,meteohub,2013-05-16 07:27:00,
2013-05-16 03:32:00,65.7,60.4,30.09,North,0,0.0,2.0,83,0.00,,,0.00,meteohub,2013-05-16 07:32:00,
2013-05-16 03:37:00,65.7,60.4,30.09,North,0,0.0,3.0,83,0.00,,,0.00,meteohub,2013-05-16 07:37:00,
2013-05-16 03:42:00,65.7,60.4,30.08,North,0,0.0,3.0,83,0.00,,,0.00,meteohub,2013-05-16 07:42:00,
2013-05-16 03:47:00,65.7,60.4,30.09,North,0,0.0,3.0,83,0.00,,,0.00,meteohub,2013-05-16 07:47:00,
2013-05-16 03:52:00,65.7,60.4,30.08,North,0,0.0,3.0,83,0.00,,,0.00,meteohub,2013-05-16 07:52:00,
2013-05-16 03:57:00,65.7,60.6,30.08,North,0,0.0,3.0,84,0.00,,,0.00,meteohub,2013-05-16 07:57:00,
2013-05-16 04:02:00,65.5,60.3,30.08,North,0,0.0,0.0,83,0.00,,,0.00,meteohub,2013-05-16 08:02:00,
2013-05-16 04:07:00,65.5,60.4,30.08,North,0,0.0,0.0,84,0.00,,,0.00,meteohub,2013-05-16 08:07:00,
2013-05-16 04:12:00,65.5,60.4,30.08,North,0,0.0,0.0,84,0.00,,,0.00,meteohub,2013-05-16 08:12:00,
2013-05-16 04:17:00,65.3,60.3,30.08,North,0,0.0,2.0,84,0.00,,,0.00,meteohub,2013-05-16 08:17:00,
2013-05-16 04:23:00,65.3,60.3,30.08,North,0,0.0,2.0,84,0.00,,,0.00,meteohub,2013-05-16 08:23:00,
2013-05-16 04:29:00,65.3,60.3,30.08,North,0,0.0,1.0,84,0.00,,,0.00,meteohub,2013-05-16 08:29:00,
2013-05-16 04:35:00,65.3,60.3,30.08,North,0,0.0,2.0,84,0.00,,,0.00,meteohub,2013-05-16 08:35:00,
2013-05-16 04:41:00,65.3,60.3,30.08,North,0,1.0,3.0,84,0.00,,,0.00,meteohub,2013-05-16 08:41:00,
2013-05-16 04:47:00,65.3,60.3,30.08,North,0,2.0,3.0,84,0.00,,,0.00,meteohub,2013-05-16 08:47:00,
2013-05-16 04:52:00,65.3,60.3,30.08,North,0,0.0,3.0,84,0.00,,,0.00,meteohub,2013-05-16 08:52:00,
2013-05-16 04:57:00,65.5,60.4,30.08,North,0,0.0,3.0,84,0.00,,,0.00,meteohub,2013-05-16 08:57:00,
2013-05-16 05:02:00,65.5,60.4,30.08,North,0,0.0,3.0,84,0.00,,,0.00,meteohub,2013-05-16 09:02:00,
2013-05-16 05:07:00,65.5,60.4,30.08,North,0,0.0,2.0,84,0.00,,,0.00,meteohub,2013-05-16 09:07:00,
2013-05-16 05:12:00,65.5,60.4,30.08,North,0,0.0,2.0,84,0.00,,,0.00,meteohub,2013-05-16 09:12:00,
2013-05-16 05:17:00,65.5,60.4,30.08,North,0,2.0,2.0,84,0.00,,,0.00,meteohub,2013-05-16 09:17:00,
2013-05-16 05:22:00,65.5,60.4,30.08,North,0,0.0,3.0,84,0.00,,,0.00,meteohub,2013-05-16 09:22:00,
2013-05-16 05:27:00,65.5,60.4,30.09,North,0,0.0,3.0,84,0.00,,,0.00,meteohub,2013-05-16 09:27:00,
2013-05-16 05:32:00,65.5,60.4,30.09,North,0,0.0,3.0,84,0.00,,,0.00,meteohub,2013-05-16 09:32:00,
2013-05-16 05:37:00,65.5,60.4,30.09,North,0,0.0,3.0,84,0.00,,,0.00,meteohub,2013-05-16 09:37:00,
2013-05-16 05:42:00,65.3,60.3,30.09,North,0,2.0,3.0,84,0.00,,,0.00,meteohub,2013-05-16 09:42:00,
2013-05-16 05:47:00,65.1,60.1,30.09,North,0,0.0,3.0,84,0.00,,,0.00,meteohub,2013-05-16 09:47:00,
2013-05-16 05:52:00,65.1,60.1,30.09,North,0,0.0,3.0,84,0.00,,,0.00,meteohub,2013-05-16 09:52:00,
2013-05-16 05:57:00,65.1,60.1,30.09,North,0,0.0,3.0,84,0.00,,,0.00,meteohub,2013-05-16 09:57:00,
2013-05-16 06:02:00,65.1,60.4,30.09,North,0,0.0,3.0,85,0.00,,,0.00,meteohub,2013-05-16 10:02:00,
2013-05-16 06:07:00,65.1,60.4,30.09,North,0,0.0,3.0,85,0.00,,,0.00,meteohub,2013-05-16 10:07:00,
2013-05-16 06:12:00,65.1,60.4,30.09,North,0,0.0,3.0,85,0.00,,,0.00,meteohub,2013-05-16 10:12:00,
2013-05-16 06:17:00,65.1,60.4,30.09,North,0,0.0,0.0,85,0.00,,,0.00,meteohub,2013-05-16 10:17:00,
2013-05-16 06:22:00,64.9,60.3,30.09,North,0,0.0,0.0,85,0.00,,,0.00,meteohub,2013-05-16 10:22:00,
2013-05-16 06:27:00,64.8,60.1,30.09,North,0,0.0,0.0,85,0.00,,,0.00,meteohub,2013-05-16 10:27:00,
2013-05-16 06:32:00,64.8,60.4,30.10,North,0,0.0,0.0,86,0.00,,,0.00,meteohub,2013-05-16 10:32:00,
2013-05-16 06:37:00,64.9,60.6,30.10,North,0,0.0,1.0,86,0.00,,,0.00,meteohub,2013-05-16 10:37:00,
2013-05-16 06:42:00,64.9,60.6,30.10,North,0,0.0,1.0,86,0.00,,,0.00,meteohub,2013-05-16 10:42:00,
2013-05-16 06:47:00,65.1,61.2,30.10,North,0,0.0,0.0,87,0.00,,,0.00,meteohub,2013-05-16 10:47:00,
2013-05-16 06:52:00,65.1,60.8,30.11,North,0,0.0,0.0,86,0.00,,,0.00,meteohub,2013-05-16 10:52:00,
2013-05-16 06:57:00,65.3,61.0,30.11,North,0,0.0,0.0,86,0.00,,,0.00,meteohub,2013-05-16 10:57:00,
2013-05-16 07:02:00,65.5,61.2,30.12,North,0,0.0,3.0,86,0.00,,,0.00,meteohub,2013-05-16 11:02:00,
2013-05-16 07:07:00,65.7,61.7,30.12,North,0,0.0,4.0,87,0.00,,,0.00,meteohub,2013-05-16 11:07:00,
2013-05-16 07:12:00,65.8,61.9,30.12,North,0,2.0,4.0,87,0.00,,,0.00,meteohub,2013-05-16 11:12:00,
2013-05-16 07:17:00,66.2,61.9,30.12,North,0,3.0,4.0,86,0.00,,,0.00,meteohub,2013-05-16 11:17:00,
2013-05-16 07:22:00,66.6,62.2,30.12,North,0,0.0,4.0,86,0.00,,,0.00,meteohub,2013-05-16 11:22:00,
2013-05-16 07:27:00,66.9,62.6,30.13,North,0,0.0,4.0,86,0.00,,,0.00,meteohub,2013-05-16 11:27:00,
2013-05-16 07:32:00,67.5,62.8,30.13,North,0,0.0,4.0,85,0.00,,,0.00,meteohub,2013-05-16 11:32:00,
2013-05-16 07:37:00,68.0,62.6,30.13,North,0,2.0,6.0,83,0.00,,,0.00,meteohub,2013-05-16 11:37:00,
2013-05-16 07:42:00,68.4,62.6,30.13,North,0,3.0,6.0,82,0.00,,,0.00,meteohub,2013-05-16 11:42:00,
2013-05-16 07:47:00,68.7,62.6,30.13,North,0,3.0,7.0,81,0.00,,,0.00,meteohub,2013-05-16 11:47:00,
2013-05-16 07:52:00,69.1,62.6,30.14,North,0,1.0,7.0,80,0.00,,,0.00,meteohub,2013-05-16 11:52:00,
2013-05-16 07:57:00,69.3,62.4,30.14,North,0,3.0,7.0,79,0.00,,,0.00,meteohub,2013-05-16 11:57:00,
2013-05-16 08:03:00,69.4,62.6,30.14,North,0,6.0,7.0,79,0.00,,,0.00,meteohub,2013-05-16 12:03:00,
2013-05-16 08:09:00,69.6,62.8,30.14,North,0,1.0,8.0,79,0.00,,,0.00,meteohub,2013-05-16 12:09:00,
2013-05-16 08:15:00,70.0,63.1,30.14,North,0,6.0,8.0,79,0.00,,,0.00,meteohub,2013-05-16 12:15:00,
2013-05-16 08:21:00,70.2,63.7,30.14,North,0,7.0,8.0,80,0.00,,,0.00,meteohub,2013-05-16 12:21:00,
2013-05-16 08:27:00,70.5,64.0,30.14,North,0,4.0,7.0,80,0.00,,,0.00,meteohub,2013-05-16 12:27:00,
2013-05-16 08:32:00,70.9,64.0,30.14,North,0,2.0,7.0,79,0.00,,,0.00,meteohub,2013-05-16 12:32:00,
2013-05-16 08:37:00,71.1,64.2,30.14,North,0,4.0,9.0,79,0.00,,,0.00,meteohub,2013-05-16 12:37:00,
2013-05-16 08:42:00,71.1,64.2,30.14,North,0,5.0,9.0,79,0.00,,,0.00,meteohub,2013-05-16 12:42:00,
2013-05-16 08:47:00,71.2,64.4,30.15,North,0,5.0,12.0,79,0.00,,,0.00,meteohub,2013-05-16 12:47:00,
2013-05-16 08:52:00,71.4,64.2,30.15,North,0,5.0,12.0,78,0.00,,,0.00,meteohub,2013-05-16 12:52:00,
2013-05-16 08:57:00,71.4,64.6,30.15,North,0,0.0,12.0,79,0.00,,,0.00,meteohub,2013-05-16 12:57:00,
2013-05-16 09:02:00,71.2,64.0,30.15,North,0,7.0,12.0,78,0.00,,,0.00,meteohub,2013-05-16 13:02:00,
2013-05-16 09:07:00,71.2,64.0,30.15,North,0,5.0,10.0,78,0.00,,,0.00,meteohub,2013-05-16 13:07:00,
2013-05-16 09:12:00,71.4,64.2,30.16,North,0,6.0,10.0,78,0.00,,,0.00,meteohub,2013-05-16 13:12:00,
2013-05-16 09:17:00,71.8,64.6,30.15,North,0,3.0,12.0,78,0.00,,,0.00,meteohub,2013-05-16 13:17:00,
2013-05-16 09:22:00,72.1,64.6,30.16,North,0,5.0,12.0,77,0.00,,,0.00,meteohub,2013-05-16 13:22:00,
2013-05-16 09:27:00,72.3,64.8,30.16,North,0,1.0,9.0,77,0.00,,,0.00,meteohub,2013-05-16 13:27:00,
2013-05-16 09:32:00,72.3,64.8,30.16,North,0,4.0,9.0,77,0.00,,,0.00,meteohub,2013-05-16 13:32:00,
2013-05-16 09:37:00,72.3,64.8,30.16,North,0,1.0,9.0,77,0.00,,,0.00,meteohub,2013-05-16 13:37:00,
2013-05-16 09:42:00,72.3,64.4,30.16,North,0,8.0,9.0,76,0.00,,,0.00,meteohub,2013-05-16 13:42:00,
2013-05-16 09:47:00,72.3,64.8,30.15,North,0,3.0,9.0,77,0.00,,,0.00,meteohub,2013-05-16 13:47:00,
2013-05-16 09:52:00,72.7,65.1,30.16,North,0,5.0,9.0,77,0.00,,,0.00,meteohub,2013-05-16 13:52:00,
2013-05-16 09:57:00,73.0,65.5,30.16,North,0,1.0,11.0,77,0.00,,,0.00,meteohub,2013-05-16 13:57:00,
2013-05-16 10:02:00,73.4,64.9,30.16,North,0,5.0,11.0,75,0.00,,,0.00,meteohub,2013-05-16 14:02:00,
2013-05-16 10:07:00,73.6,65.1,30.17,North,0,9.0,12.0,75,0.00,,,0.00,meteohub,2013-05-16 14:07:00,
2013-05-16 10:12:00,73.9,65.5,30.16,North,0,5.0,12.0,75,0.00,,,0.00,meteohub,2013-05-16 14:12:00,
2013-05-16 10:17:00,74.1,64.9,30.17,North,0,3.0,10.0,73,0.00,,,0.00,meteohub,2013-05-16 14:17:00,
2013-05-16 10:22:00,74.5,65.7,30.16,North,0,3.0,10.0,74,0.00,,,0.00,meteohub,2013-05-16 14:22:00,
2013-05-16 10:27:00,74.8,65.7,30.16,North,0,6.0,10.0,73,0.00,,,0.00,meteohub,2013-05-16 14:27:00,
2013-05-16 10:32:00,74.8,65.7,30.16,North,0,4.0,10.0,73,0.00,,,0.00,meteohub,2013-05-16 14:32:00,
2013-05-16 10:37:00,75.4,65.3,30.16,North,0,4.0,10.0,71,0.00,,,0.00,meteohub,2013-05-16 14:37:00,
2013-05-16 10:42:00,75.4,65.7,30.16,North,0,2.0,10.0,72,0.00,,,0.00,meteohub,2013-05-16 14:42:00,
2013-05-16 10:47:00,75.6,65.8,30.16,North,0,4.0,12.0,72,0.00,,,0.00,meteohub,2013-05-16 14:47:00,
2013-05-16 10:52:00,75.9,65.8,30.16,North,0,7.0,12.0,71,0.00,,,0.00,meteohub,2013-05-16 14:52:00,
2013-05-16 10:57:00,75.7,65.7,30.16,North,0,0.0,12.0,71,0.00,,,0.00,meteohub,2013-05-16 14:57:00,
2013-05-16 11:02:00,75.7,66.0,30.16,North,0,3.0,12.0,72,0.00,,,0.00,meteohub,2013-05-16 15:02:00,
2013-05-16 11:07:00,75.7,65.7,30.16,North,0,2.0,9.0,71,0.00,,,0.00,meteohub,2013-05-16 15:07:00,
2013-05-16 11:12:00,75.6,65.8,30.16,North,0,2.0,9.0,72,0.00,,,0.00,meteohub,2013-05-16 15:12:00,
2013-05-16 11:17:00,75.9,65.8,30.15,North,0,4.0,7.0,71,0.00,,,0.00,meteohub,2013-05-16 15:17:00,
2013-05-16 11:22:00,76.5,66.4,30.16,North,0,3.0,7.0,71,0.00,,,0.00,meteohub,2013-05-16 15:22:00,
2013-05-16 11:27:00,77.0,66.4,30.15,North,0,3.0,7.0,70,0.00,,,0.00,meteohub,2013-05-16 15:27:00,
2013-05-16 11:33:00,77.5,66.6,30.16,North,0,2.0,7.0,69,0.00,,,0.00,meteohub,2013-05-16 15:33:00,
2013-05-16 11:39:00,77.7,66.4,30.16,North,0,3.0,7.0,68,0.00,,,0.00,meteohub,2013-05-16 15:39:00,
2013-05-16 11:44:00,78.1,66.7,30.15,North,0,4.0,9.0,68,0.00,,,0.00,meteohub,2013-05-16 15:44:00,
2013-05-16 11:50:00,78.4,66.2,30.16,North,0,0.0,9.0,66,0.00,,,0.00,meteohub,2013-05-16 15:50:00,
2013-05-16 11:56:00,78.6,65.8,30.16,North,0,3.0,8.0,65,0.00,,,0.00,meteohub,2013-05-16 15:56:00,
2013-05-16 12:02:00,79.0,66.6,30.16,North,0,5.0,8.0,66,0.00,,,0.00,meteohub,2013-05-16 16:02:00,
2013-05-16 12:07:00,79.5,67.1,30.15,North,0,1.0,8.0,66,0.00,,,0.00,meteohub,2013-05-16 16:07:00,
2013-05-16 12:12:00,80.1,67.3,30.15,North,0,4.0,8.0,65,0.00,,,0.00,meteohub,2013-05-16 16:12:00,
2013-05-16 12:17:00,79.9,66.2,30.15,North,0,6.0,7.0,63,0.00,,,0.00,meteohub,2013-05-16 16:17:00,
2013-05-16 12:22:00,79.9,66.6,30.15,North,0,1.0,7.0,64,0.00,,,0.00,meteohub,2013-05-16 16:22:00,
2013-05-16 12:27:00,80.2,66.6,30.15,North,0,3.0,8.0,63,0.00,,,0.00,meteohub,2013-05-16 16:27:00,
2013-05-16 12:32:00,80.2,66.0,30.15,North,0,1.0,8.0,62,0.00,,,0.00,meteohub,2013-05-16 16:32:00,
2013-05-16 12:37:00,80.2,66.0,30.15,North,0,1.0,6.0,62,0.00,,,0.00,meteohub,2013-05-16 16:37:00,
2013-05-16 12:42:00,80.4,66.2,30.16,North,0,4.0,6.0,62,0.00,,,0.00,meteohub,2013-05-16 16:42:00,
2013-05-16 12:47:00,80.6,65.8,30.15,North,0,0.0,7.0,61,0.00,,,0.00,meteohub,2013-05-16 16:47:00,
2013-05-16 12:52:00,81.0,66.2,30.14,North,0,2.0,7.0,61,0.00,,,0.00,meteohub,2013-05-16 16:52:00,
2013-05-16 12:57:00,81.7,66.9,30.14,North,0,1.0,8.0,61,0.00,,,0.00,meteohub,2013-05-16 16:57:00,
2013-05-16 13:02:00,81.9,66.6,30.13,North,0,3.0,8.0,60,0.00,,,0.00,meteohub,2013-05-16 17:02:00,
2013-05-16 13:07:00,82.2,66.4,30.13,North,0,0.0,7.0,59,0.00,,,0.00,meteohub,2013-05-16 17:07:00,
2013-05-16 13:13:00,82.8,65.5,30.13,North,0,1.0,7.0,56,0.00,,,0.00,meteohub,2013-05-16 17:13:00,
2013-05-16 13:19:00,82.6,65.3,30.13,North,0,1.0,7.0,56,0.00,,,0.00,meteohub,2013-05-16 17:19:00,
2013-05-16 13:24:00,82.0,65.3,30.13,North,0,0.0,6.0,57,0.00,,,0.00,meteohub,2013-05-16 17:24:00,
2013-05-16 13:30:00,82.0,65.8,30.12,North,0,2.0,6.0,58,0.00,,,0.00,meteohub,2013-05-16 17:30:00,
2013-05-16 13:36:00,82.6,65.3,30.12,North,0,1.0,5.0,56,0.00,,,0.00,meteohub,2013-05-16 17:36:00,
2013-05-16 13:42:00,82.8,65.5,30.12,North,0,0.0,5.0,56,0.00,,,0.00,meteohub,2013-05-16 17:42:00,
2013-05-16 13:47:00,82.6,65.8,30.12,North,0,1.0,5.0,57,0.00,,,0.00,meteohub,2013-05-16 17:47:00,
2013-05-16 13:52:00,82.4,65.7,30.12,North,0,2.0,5.0,57,0.00,,,0.00,meteohub,2013-05-16 17:52:00,
2013-05-16 13:57:00,82.2,65.5,30.12,North,0,1.0,5.0,57,0.00,,,0.00,meteohub,2013-05-16 17:57:00,
2013-05-16 14:02:00,82.6,66.7,30.12,North,0,4.0,5.0,59,0.00,,,0.00,meteohub,2013-05-16 18:02:00,
2013-05-16 14:07:00,83.7,66.4,30.12,North,0,2.0,6.0,56,0.00,,,0.00,meteohub,2013-05-16 18:07:00,
2013-05-16 14:12:00,84.6,65.5,30.12,North,0,1.0,6.0,53,0.00,,,0.00,meteohub,2013-05-16 18:12:00,
2013-05-16 14:17:00,84.6,65.5,30.12,North,0,1.0,6.0,53,0.00,,,0.00,meteohub,2013-05-16 18:17:00,
2013-05-16 14:22:00,84.2,65.7,30.11,North,0,1.0,6.0,54,0.00,,,0.00,meteohub,2013-05-16 18:22:00,
2013-05-16 14:27:00,83.8,65.5,30.11,North,0,0.0,6.0,54,0.00,,,0.00,meteohub,2013-05-16 18:27:00,
2013-05-16 14:33:00,84.9,64.8,30.11,North,0,0.0,3.0,51,0.00,,,0.00,meteohub,2013-05-16 18:33:00,
2013-05-16 14:39:00,85.5,64.0,30.11,North,0,4.0,4.0,49,0.00,,,0.00,meteohub,2013-05-16 18:39:00,
2013-05-16 14:45:00,85.5,64.8,30.10,North,0,2.0,6.0,50,0.00,,,0.00,meteohub,2013-05-16 18:45:00,
2013-05-16 14:51:00,85.3,64.0,30.10,North,0,3.0,6.0,49,0.00,,,0.00,meteohub,2013-05-16 18:51:00,
2013-05-16 14:57:00,84.7,64.0,30.10,North,0,5.0,5.0,50,0.00,,,0.00,meteohub,2013-05-16 18:57:00,
2013-05-16 15:02:00,84.6,63.9,30.09,North,0,0.0,5.0,50,0.00,,,0.00,meteohub,2013-05-16 19:02:00,
2013-05-16 15:07:00,84.6,63.9,30.09,North,0,3.0,5.0,50,0.00,,,0.00,meteohub,2013-05-16 19:07:00,
2013-05-16 15:12:00,84.7,64.0,30.09,North,0,2.0,5.0,50,0.00,,,0.00,meteohub,2013-05-16 19:12:00,
2013-05-16 15:17:00,84.9,64.2,30.09,North,0,1.0,5.0,50,0.00,,,0.00,meteohub,2013-05-16 19:17:00,
2013-05-16 15:22:00,85.6,64.2,30.08,North,0,6.0,6.0,49,0.00,,,0.00,meteohub,2013-05-16 19:22:00,
2013-05-16 15:27:00,85.6,64.2,30.08,North,0,1.0,7.0,49,0.00,,,0.00,meteohub,2013-05-16 19:27:00,
2013-05-16 15:32:00,85.5,64.8,30.08,North,0,0.0,7.0,50,0.00,,,0.00,meteohub,2013-05-16 19:32:00,
2013-05-16 15:37:00,85.6,65.5,30.07,North,0,1.0,7.0,51,0.00,,,0.00,meteohub,2013-05-16 19:37:00,
2013-05-16 15:42:00,85.8,64.9,30.07,North,0,1.0,7.0,50,0.00,,,0.00,meteohub,2013-05-16 19:42:00,
2013-05-16 15:47:00,85.8,64.9,30.07,North,0,3.0,7.0,50,0.00,,,0.00,meteohub,2013-05-16 19:47:00,
2013-05-16 15:52:00,85.5,64.8,30.07,North,0,1.0,7.0,50,0.00,,,0.00,meteohub,2013-05-16 19:52:00,
2013-05-16 15:57:00,85.5,67.5,30.07,North,0,5.0,6.0,55,0.00,,,0.00,meteohub,2013-05-16 19:57:00,
2013-05-16 16:02:00,84.7,68.9,30.07,North,0,4.0,6.0,59,0.00,,,0.00,meteohub,2013-05-16 20:02:00,
2013-05-16 16:07:00,84.4,68.5,30.07,North,0,2.0,9.0,59,0.00,,,0.00,meteohub,2013-05-16 20:07:00,
2013-05-16 16:12:00,84.2,68.4,30.07,North,0,2.0,9.0,59,0.00,,,0.00,meteohub,2013-05-16 20:12:00,
2013-05-16 16:17:00,84.0,68.7,30.07,North,0,3.0,9.0,60,0.00,,,0.00,meteohub,2013-05-16 20:17:00,
2013-05-16 16:22:00,83.5,68.5,30.07,North,0,3.0,9.0,61,0.00,,,0.00,meteohub,2013-05-16 20:22:00,
2013-05-16 16:27:00,82.9,68.5,30.07,North,0,1.0,9.0,62,0.00,,,0.00,meteohub,2013-05-16 20:27:00,
2013-05-16 16:32:00,82.9,68.5,30.06,North,0,5.0,9.0,62,0.00,,,0.00,meteohub,2013-05-16 20:32:00,
2013-05-16 16:37:00,82.9,68.5,30.07,North,0,3.0,9.0,62,0.00,,,0.00,meteohub,2013-05-16 20:37:00,
2013-05-16 16:42:00,82.9,68.5,30.07,North,0,5.0,9.0,62,0.00,,,0.00,meteohub,2013-05-16 20:42:00,
2013-05-16 16:47:00,82.9,69.1,30.06,North,0,0.0,8.0,63,0.00,,,0.00,meteohub,2013-05-16 20:47:00,
2013-05-16 16:52:00,82.9,69.1,30.07,North,0,5.0,8.0,63,0.00,,,0.00,meteohub,2013-05-16 20:52:00,
2013-05-16 16:57:00,82.8,68.4,30.06,North,0,1.0,9.0,62,0.00,,,0.00,meteohub,2013-05-16 20:57:00,
2013-05-16 17:02:00,82.6,68.2,30.07,North,0,5.0,9.0,62,0.00,,,0.00,meteohub,2013-05-16 21:02:00,
2013-05-16 17:07:00,82.6,68.7,30.06,North,0,1.0,8.0,63,0.00,,,0.00,meteohub,2013-05-16 21:07:00,
2013-05-16 17:12:00,82.6,68.7,30.06,North,0,3.0,8.0,63,0.00,,,0.00,meteohub,2013-05-16 21:12:00,
2013-05-16 17:17:00,82.2,68.4,30.06,North,0,5.0,8.0,63,0.00,,,0.00,meteohub,2013-05-16 21:17:00,
2013-05-16 17:22:00,81.9,68.0,30.06,North,0,1.0,8.0,63,0.00,,,0.00,meteohub,2013-05-16 21:22:00,
2013-05-16 17:27:00,81.5,67.6,30.06,North,0,4.0,8.0,63,0.00,,,0.00,meteohub,2013-05-16 21:27:00,
2013-05-16 17:33:00,81.5,68.2,30.06,North,0,3.0,8.0,64,0.00,,,0.00,meteohub,2013-05-16 21:33:00,
2013-05-16 17:39:00,81.9,68.5,30.06,North,0,1.0,8.0,64,0.00,,,0.00,meteohub,2013-05-16 21:39:00,
2013-05-16 17:45:00,82.2,68.4,30.06,North,0,2.0,9.0,63,0.00,,,0.00,meteohub,2013-05-16 21:45:00,
2013-05-16 17:51:00,82.0,68.2,30.06,North,0,1.0,9.0,63,0.00,,,0.00,meteohub,2013-05-16 21:51:00,
2013-05-16 17:57:00,81.7,67.8,30.05,North,0,7.0,9.0,63,0.00,,,0.00,meteohub,2013-05-16 21:57:00,
2013-05-16 18:02:00,81.1,67.8,30.05,North,0,2.0,9.0,64,0.00,,,0.00,meteohub,2013-05-16 22:02:00,
2013-05-16 18:07:00,81.0,67.6,30.05,North,0,7.0,8.0,64,0.00,,,0.00,meteohub,2013-05-16 22:07:00,
2013-05-16 18:12:00,80.4,67.6,30.05,North,0,2.0,8.0,65,0.00,,,0.00,meteohub,2013-05-16 22:12:00,
2013-05-16 18:17:00,80.2,67.8,30.05,North,0,4.0,9.0,66,0.00,,,0.00,meteohub,2013-05-16 22:17:00,
2013-05-16 18:22:00,79.9,67.5,30.05,North,0,2.0,9.0,66,0.00,,,0.00,meteohub,2013-05-16 22:22:00,
2013-05-16 18:27:00,79.9,68.0,30.05,North,0,4.0,7.0,67,0.00,,,0.00,meteohub,2013-05-16 22:27:00,
2013-05-16 18:32:00,80.1,68.2,30.05,North,0,1.0,7.0,67,0.00,,,0.00,meteohub,2013-05-16 22:32:00,
2013-05-16 18:37:00,79.9,68.0,30.05,North,0,1.0,7.0,67,0.00,,,0.00,meteohub,2013-05-16 22:37:00,
2013-05-16 18:42:00,79.7,67.8,30.05,North,0,4.0,7.0,67,0.00,,,0.00,meteohub,2013-05-16 22:42:00,
2013-05-16 18:47:00,79.3,67.5,30.06,North,0,3.0,9.0,67,0.00,,,0.00,meteohub,2013-05-16 22:47:00,
2013-05-16 18:52:00,79.2,67.3,30.06,North,0,3.0,9.0,67,0.00,,,0.00,meteohub,2013-05-16 22:52:00,
2013-05-16 18:57:00,79.0,67.5,30.06,North,0,4.0,9.0,68,0.00,,,0.00,meteohub,2013-05-16 22:57:00,
2013-05-16 19:02:00,78.6,67.1,30.06,North,0,5.0,9.0,68,0.00,,,0.00,meteohub,2013-05-16 23:02:00,
2013-05-16 19:07:00,78.3,66.7,30.06,North,0,5.0,8.0,68,0.00,,,0.00,meteohub,2013-05-16 23:07:00,
2013-05-16 19:12:00,77.9,66.9,30.05,North,0,4.0,8.0,69,0.00,,,0.00,meteohub,2013-05-16 23:12:00,
2013-05-16 19:17:00,77.7,66.7,30.05,North,0,5.0,9.0,69,0.00,,,0.00,meteohub,2013-05-16 23:17:00,
2013-05-16 19:22:00,77.5,66.6,30.05,North,0,2.0,9.0,69,0.00,,,0.00,meteohub,2013-05-16 23:22:00,
2013-05-16 19:27:00,77.2,66.6,30.05,North,0,0.0,11.0,70,0.00,,,0.00,meteohub,2013-05-16 23:27:00,
2013-05-16 19:33:00,77.0,66.4,30.05,North,0,10.0,11.0,70,0.00,,,0.00,meteohub,2013-05-16 23:33:00,
2013-05-16 19:38:00,76.8,66.7,30.06,North,0,6.0,9.0,71,0.00,,,0.00,meteohub,2013-05-16 23:38:00,
2013-05-16 19:44:00,76.6,66.6,30.06,North,0,1.0,10.0,71,0.00,,,0.00,meteohub,2013-05-16 23:44:00,
2013-05-16 19:50:00,76.5,66.4,30.06,North,0,3.0,10.0,71,0.00,,,0.00,meteohub,2013-05-16 23:50:00,
2013-05-16 19:56:00,76.3,66.2,30.06,North,0,9.0,9.0,71,0.00,,,0.00,meteohub,2013-05-16 23:56:00,
2013-05-16 20:02:00,75.9,65.8,30.06,North,0,4.0,7.0,71,0.00,,,0.00,meteohub,2013-05-17 00:02:00,
2013-05-16 20:07:00,75.9,65.5,30.06,North,0,6.0,10.0,70,0.00,,,0.00,meteohub,2013-05-17 00:07:00,
2013-05-16 20:12:00,75.7,64.8,30.06,North,0,1.0,10.0,69,0.00,,,0.00,meteohub,2013-05-17 00:12:00,
2013-05-16 20:17:00,75.7,64.4,30.06,North,0,1.0,10.0,68,0.00,,,0.00,meteohub,2013-05-17 00:17:00,
2013-05-16 20:22:00,75.6,64.2,30.06,North,0,2.0,10.0,68,0.00,,,0.00,meteohub,2013-05-17 00:22:00,
2013-05-16 20:27:00,75.6,64.2,30.06,North,0,2.0,7.0,68,0.00,,,0.00,meteohub,2013-05-17 00:27:00,
2013-05-16 20:32:00,75.4,64.0,30.07,North,0,5.0,7.0,68,0.00,,,0.00,meteohub,2013-05-17 00:32:00,
2013-05-16 20:37:00,75.4,64.0,30.06,North,0,4.0,7.0,68,0.00,,,0.00,meteohub,2013-05-17 00:37:00,
2013-05-16 20:42:00,75.2,63.9,30.06,North,0,2.0,7.0,68,0.00,,,0.00,meteohub,2013-05-17 00:42:00,
2013-05-16 20:47:00,75.0,64.2,30.06,North,0,5.0,9.0,69,0.00,,,0.00,meteohub,2013-05-17 00:47:00,
2013-05-16 20:52:00,74.8,64.0,30.06,North,0,5.0,9.0,69,0.00,,,0.00,meteohub,2013-05-17 00:52:00,
2013-05-16 20:58:00,74.7,63.9,30.06,North,0,5.0,9.0,69,0.00,,,0.00,meteohub,2013-05-17 00:58:00,
2013-05-16 21:04:00,74.5,64.0,30.07,North,0,4.0,9.0,70,0.00,,,0.00,meteohub,2013-05-17 01:04:00,
2013-05-16 21:10:00,74.5,64.0,30.07,North,0,4.0,10.0,70,0.00,,,0.00,meteohub,2013-05-17 01:10:00,
2013-05-16 21:15:00,74.3,64.2,30.07,North,0,2.0,8.0,71,0.00,,,0.00,meteohub,2013-05-17 01:15:00,
2013-05-16 21:21:00,74.1,64.0,30.07,North,0,4.0,8.0,71,0.00,,,0.00,meteohub,2013-05-17 01:21:00,
2013-05-16 21:27:00,73.9,63.9,30.07,North,0,1.0,10.0,71,0.00,,,0.00,meteohub,2013-05-17 01:27:00,
2013-05-16 21:32:00,73.9,63.9,30.07,North,0,0.0,10.0,71,0.00,,,0.00,meteohub,2013-05-17 01:32:00,
2013-05-16 21:37:00,73.9,63.9,30.07,North,0,1.0,10.0,71,0.00,,,0.00,meteohub,2013-05-17 01:37:00,
2013-05-16 21:42:00,73.8,63.7,30.07,North,0,4.0,10.0,71,0.00,,,0.00,meteohub,2013-05-17 01:42:00,
2013-05-16 21:47:00,73.8,63.7,30.07,North,0,1.0,8.0,71,0.00,,,0.00,meteohub,2013-05-17 01:47:00,
2013-05-16 21:52:00,73.6,63.7,30.07,North,0,3.0,8.0,71,0.00,,,0.00,meteohub,2013-05-17 01:52:00,
2013-05-16 21:57:00,73.6,63.7,30.08,North,0,4.0,8.0,71,0.00,,,0.00,meteohub,2013-05-17 01:57:00,
2013-05-16 22:02:00,73.6,63.7,30.08,North,0,4.0,8.0,71,0.00,,,0.00,meteohub,2013-05-17 02:02:00,
2013-05-16 22:07:00,73.4,63.5,30.08,North,0,2.0,7.0,71,0.00,,,0.00,meteohub,2013-05-17 02:07:00,
2013-05-16 22:12:00,73.2,63.7,30.09,North,0,2.0,7.0,72,0.00,,,0.00,meteohub,2013-05-17 02:12:00,
2013-05-16 22:17:00,73.2,63.7,30.09,North,0,1.0,7.0,72,0.00,,,0.00,meteohub,2013-05-17 02:17:00,
2013-05-16 22:22:00,73.0,63.9,30.09,North,0,2.0,7.0,73,0.00,,,0.00,meteohub,2013-05-17 02:22:00,
2013-05-16 22:27:00,72.9,63.7,30.09,North,0,3.0,8.0,73,0.00,,,0.00,meteohub,2013-05-17 02:27:00,
2013-05-16 22:32:00,72.9,64.0,30.09,North,0,3.0,8.0,74,0.00,,,0.00,meteohub,2013-05-17 02:32:00,
2013-05-16 22:37:00,72.9,64.0,30.09,North,0,0.0,8.0,74,0.00,,,0.00,meteohub,2013-05-17 02:37:00,
2013-05-16 22:42:00,72.9,64.0,30.09,North,0,2.0,8.0,74,0.00,,,0.00,meteohub,2013-05-17 02:42:00,
2013-05-16 22:47:00,72.7,63.9,30.09,North,0,2.0,5.0,74,0.00,,,0.00,meteohub,2013-05-17 02:47:00,
2013-05-16 22:52:00,72.9,64.0,30.10,North,0,1.0,5.0,74,0.00,,,0.00,meteohub,2013-05-17 02:52:00,
2013-05-16 22:57:00,72.9,64.0,30.10,North,0,3.0,5.0,74,0.00,,,0.00,meteohub,2013-05-17 02:57:00,
2013-05-16 23:02:00,72.7,64.2,30.09,North,0,2.0,5.0,75,0.00,,,0.00,meteohub,2013-05-17 03:02:00,
2013-05-16 23:07:00,72.5,64.0,30.09,North,0,2.0,5.0,75,0.00,,,0.00,meteohub,2013-05-17 03:07:00,
2013-05-16 23:12:00,72.3,64.4,30.09,North,0,0.0,5.0,76,0.00,,,0.00,meteohub,2013-05-17 03:12:00,
2013-05-16 23:17:00,72.3,64.4,30.09,North,0,0.0,6.0,76,0.00,,,0.00,meteohub,2013-05-17 03:17:00,
2013-05-16 23:22:00,72.1,64.2,30.09,North,0,0.0,6.0,76,0.00,,,0.00,meteohub,2013-05-17 03:22:00,
2013-05-16 23:27:00,72.1,64.6,30.09,North,0,1.0,6.0,77,0.00,,,0.00,meteohub,2013-05-17 03:27:00,
2013-05-16 23:32:00,72.0,64.4,30.09,North,0,1.0,6.0,77,0.00,,,0.00,meteohub,2013-05-17 03:32:00,
2013-05-16 23:37:00,71.8,64.6,30.09,North,0,0.0,4.0,78,0.00,,,0.00,meteohub,2013-05-17 03:37:00,
2013-05-16 23:43:00,71.6,64.4,30.09,North,0,0.0,4.0,78,0.00,,,0.00,meteohub,2013-05-17 03:43:00,
2013-05-16 23:49:00,71.4,64.6,30.09,North,0,1.0,4.0,79,0.00,,,0.00,meteohub,2013-05-17 03:49:00,
2013-05-16 23:55:00,71.2,64.4,30.09,North,0,1.0,4.0,79,0.00,,,0.00,meteohub,2013-05-17 03:55:00,